Terminal Aerodrome Forecast
Issued by NWS Wilmington, NC

Home | Current Version | Previous Version | Text Only | Print | Product List | Glossary On
Versions: 1 2 3 4 5 6 7 8 9 10 11 12
000
FTUS42 KILM 282300
TAFMYR
TAF
KMYR 282320Z 2900/2924 19011KT P6SM SKC
     FM290200 20005KT P6SM SKC
      TEMPO 2909/2912 5SM BR FEW050
     FM291700 16011KT P6SM FEW060
      AMD LTD TO CLD VIS AND WIND 2904/2911=

USA.gov is the U.S. government's official web portal to all federal, state and local government web resources and services.